createdAt,value
2023-03-22T04:57:47.483Z,99.90
2023-03-22T05:00:18.429Z,99.90
2023-03-22T05:02:46.716Z,99.90
2023-03-22T05:05:14.629Z,99.90
2023-03-22T05:07:42.482Z,99.90
2023-03-22T05:10:23.855Z,99.90
2023-03-22T05:13:16.873Z,99.90
2023-03-22T05:15:45.628Z,99.90
2023-03-22T05:18:14.799Z,99.90
2023-03-22T05:20:43.554Z,99.90
2023-03-22T05:23:11.633Z,99.90
2023-03-22T05:26:08.612Z,99.90
2023-03-22T10:24:52.235Z,75.10
2023-03-22T10:27:22.367Z,75.80
2023-03-22T10:29:54.765Z,75.20
2023-03-22T10:32:32.819Z,72.70
2023-03-22T10:35:00.684Z,70.80
2023-03-22T10:37:36.415Z,70.10
2023-03-22T10:40:07.979Z,71.20
2023-03-22T10:42:39.119Z,70.60
2023-03-22T10:45:10.832Z,69.50
2023-03-22T10:47:42.754Z,70.10
2023-03-22T10:50:17.827Z,68.80
2023-03-22T10:52:52.361Z,68.00
2023-03-22T10:55:21.712Z,67.60
2023-03-22T10:57:58.796Z,65.20
2023-03-22T11:00:28.808Z,65.50
2023-03-22T11:03:00.604Z,65.10
2023-03-22T11:05:30.536Z,65.30
2023-03-22T11:07:59.618Z,63.20
2023-03-22T11:10:33.804Z,62.00
2023-03-22T11:13:18.753Z,62.40
2023-03-22T11:15:53.858Z,59.50
2023-03-22T11:18:22.427Z,58.60
2023-03-22T11:20:58.727Z,58.40
2023-03-22T11:23:28.894Z,59.20
2023-03-22T11:26:01.864Z,60.40
2023-03-22T11:28:36.276Z,60.50
2023-03-22T11:31:08.475Z,57.20
2023-03-22T11:33:41.650Z,56.30
2023-03-22T11:36:18.660Z,55.90
2023-03-22T11:38:48.902Z,55.20
2023-03-22T11:41:29.464Z,54.10
2023-03-22T11:43:59.835Z,53.50
2023-03-22T11:46:27.728Z,52.10
2023-03-22T11:49:01.635Z,52.20
2023-03-22T11:51:33.422Z,50.50
2023-03-22T11:54:09.078Z,49.90
2023-03-22T11:56:44.671Z,48.50
2023-03-22T11:59:16.771Z,49.00
2023-03-22T12:01:49.366Z,48.90
2023-03-22T12:04:23.482Z,49.00
2023-03-22T12:06:54.774Z,46.90
2023-03-22T12:09:29.420Z,45.50
2023-03-22T12:12:39.564Z,45.50
2023-03-22T12:15:19.459Z,43.40
2023-03-22T12:17:58.704Z,42.40
2023-03-22T12:20:49.432Z,43.50
2023-03-22T12:23:26.950Z,43.40
2023-03-22T12:26:03.488Z,43.10
2023-03-22T12:28:38.354Z,43.20
2023-03-22T12:31:08.052Z,42.20
2023-03-22T12:33:40.697Z,41.50
2023-03-22T12:36:13.318Z,41.00
2023-03-22T12:38:46.365Z,41.60
2023-03-22T12:41:19.021Z,40.70
2023-03-22T12:43:55.304Z,40.20
2023-03-22T12:46:25.983Z,38.40
2023-03-22T12:51:43.876Z,39.40
2023-03-22T12:54:16.969Z,39.00
2023-03-22T12:56:47.158Z,37.70
2023-03-22T12:59:24.535Z,38.20
2023-03-22T13:01:56.020Z,36.40
2023-03-22T13:04:33.699Z,36.00
2023-03-22T13:07:15.244Z,36.60
2023-03-22T13:09:44.112Z,37.00
2023-03-22T13:12:35.342Z,36.40
2023-03-22T13:15:41.202Z,36.70
2023-03-22T13:18:33.546Z,37.40
2023-03-22T13:21:16.577Z,38.40
2023-03-22T13:24:01.142Z,38.70
2023-03-22T13:26:40.700Z,38.50
2023-03-22T13:29:24.792Z,39.00
2023-03-22T13:31:59.523Z,38.00
2023-03-22T13:34:39.295Z,37.40
2023-03-22T13:37:12.272Z,36.80
2023-03-22T13:39:46.490Z,37.10
2023-03-22T13:42:20.787Z,35.10
2023-03-22T13:44:58.550Z,35.00
2023-03-22T13:47:37.990Z,36.10
2023-03-22T13:50:14.439Z,35.90
2023-03-22T13:52:44.952Z,37.80
2023-03-22T13:55:32.289Z,38.70
2023-03-22T13:58:01.800Z,38.30
2023-03-22T14:00:39.544Z,38.80
2023-03-22T14:03:16.154Z,38.80
2023-03-22T14:05:46.959Z,39.10
2023-03-22T14:08:24.356Z,37.80
2023-03-22T14:10:59.053Z,38.80
2023-03-22T14:13:34.026Z,38.70
2023-03-22T14:16:07.602Z,38.20
2023-03-22T14:18:41.129Z,37.50
2023-03-22T14:21:13.784Z,34.60
